createdAt,value
2019-03-27T00:00:13.239Z,69.72
2019-03-27T00:00:49.375Z,69.75
2019-03-27T00:01:20.562Z,69.80
2019-03-27T00:01:51.720Z,69.86
2019-03-27T00:02:22.870Z,69.88
2019-03-27T00:02:54.116Z,69.93
2019-03-27T00:03:25.269Z,69.93
2019-03-27T00:03:56.434Z,69.93
2019-03-27T00:04:27.596Z,69.95
2019-03-27T00:04:58.761Z,69.96
2019-03-27T00:05:29.931Z,69.96
2019-03-27T00:06:01.134Z,69.88
2019-03-27T00:06:32.356Z,69.95
2019-03-27T00:07:03.575Z,69.92
2019-03-27T00:07:34.775Z,69.90
2019-03-27T00:08:06.945Z,69.90
2019-03-27T00:08:38.229Z,69.91
2019-03-27T00:09:09.393Z,69.86
2019-03-27T00:09:40.691Z,69.86
2019-03-27T00:10:11.854Z,69.86
2019-03-27T00:10:43.078Z,69.92
2019-03-27T00:11:16.230Z,69.94
2019-03-27T00:11:47.325Z,69.90
2019-03-27T00:12:18.478Z,69.98
2019-03-27T00:12:49.665Z,70.01
2019-03-27T00:13:20.816Z,69.99
2019-03-27T00:13:52.026Z,70.02
2019-03-27T00:14:23.682Z,69.98
2019-03-27T00:14:54.915Z,69.93
2019-03-27T00:15:26.087Z,69.91
2019-03-27T00:15:57.316Z,69.96
2019-03-27T00:16:28.479Z,69.91
2019-03-27T00:16:59.681Z,70.00
2019-03-27T00:17:30.846Z,70.00
2019-03-27T00:18:02.153Z,70.06
2019-03-27T00:18:33.396Z,70.05
2019-03-27T00:19:04.602Z,70.01
2019-03-27T00:19:35.744Z,70.15
2019-03-27T00:20:07.562Z,70.13
2019-03-27T00:20:38.697Z,70.14
2019-03-27T00:21:09.912Z,70.14
2019-03-27T00:21:41.080Z,70.21
2019-03-27T00:22:12.253Z,70.23
2019-03-27T00:22:43.481Z,70.25
2019-03-27T00:23:14.661Z,70.26
2019-03-27T00:23:45.829Z,70.34
2019-03-27T00:24:16.996Z,70.32
2019-03-27T00:24:48.291Z,70.38
2019-03-27T00:25:19.459Z,70.48
2019-03-27T00:25:50.632Z,70.54
2019-03-27T00:26:21.877Z,70.58
2019-03-27T00:26:53.343Z,70.62
2019-03-27T00:27:24.555Z,70.68
2019-03-27T00:27:55.717Z,70.67
2019-03-27T00:28:26.988Z,70.70
2019-03-27T00:28:58.131Z,70.72
2019-03-27T00:29:29.280Z,70.78
2019-03-27T00:30:00.467Z,70.88
2019-03-27T00:30:31.625Z,70.89
2019-03-27T00:31:02.782Z,70.94
2019-03-27T00:31:33.966Z,71.01
2019-03-27T00:32:05.148Z,71.08
2019-03-27T00:32:36.307Z,71.11
2019-03-27T00:33:07.504Z,71.12
2019-03-27T00:33:38.649Z,71.13
2019-03-27T00:34:09.836Z,71.19
2019-03-27T00:34:41.042Z,71.24
2019-03-27T00:35:13.656Z,71.16
2019-03-27T00:35:44.804Z,71.32
2019-03-27T00:36:16.011Z,71.26
2019-03-27T00:36:47.262Z,71.33
2019-03-27T00:37:18.455Z,71.23
2019-03-27T00:37:49.615Z,71.28
2019-03-27T00:38:20.821Z,71.35
2019-03-27T00:38:51.953Z,71.37
2019-03-27T00:39:23.504Z,71.44
2019-03-27T00:39:54.639Z,71.46
2019-03-27T00:40:25.843Z,71.42
2019-03-27T00:40:56.991Z,71.36
2019-03-27T00:41:29.187Z,71.42
2019-03-27T00:42:00.365Z,71.48
2019-03-27T00:42:31.547Z,71.41
2019-03-27T00:43:02.771Z,71.46
2019-03-27T00:43:33.950Z,71.53
2019-03-27T00:44:05.133Z,71.50
2019-03-27T00:44:36.415Z,71.41
2019-03-27T00:45:07.581Z,71.45
2019-03-27T00:45:38.761Z,71.43
2019-03-27T00:46:09.937Z,71.41
2019-03-27T00:46:41.111Z,71.40
2019-03-27T00:47:12.302Z,71.43
2019-03-27T00:47:43.480Z,71.41
2019-03-27T00:48:14.664Z,71.44
2019-03-27T00:48:45.929Z,71.44
2019-03-27T00:49:17.158Z,71.36
2019-03-27T00:49:48.383Z,71.32
2019-03-27T00:50:19.606Z,71.34
2019-03-27T00:50:50.841Z,71.31
2019-03-27T00:51:22.080Z,71.23
2019-03-27T00:51:53.481Z,71.22
2019-03-27T00:52:24.682Z,71.16
2019-03-27T00:52:55.837Z,71.11
2019-03-27T00:53:27.042Z,71.21
2019-03-27T00:53:58.200Z,71.09
2019-03-27T00:54:29.409Z,71.18
2019-03-27T00:55:00.561Z,71.26
2019-03-27T00:55:31.755Z,71.20
2019-03-27T00:56:02.916Z,71.21
2019-03-27T00:56:34.108Z,71.17
2019-03-27T00:57:05.284Z,71.11
2019-03-27T00:57:36.485Z,71.03
2019-03-27T00:58:07.653Z,71.12
2019-03-27T00:58:39.869Z,71.03
2019-03-27T00:59:11.022Z,70.97
2019-03-27T00:59:42.219Z,71.06
2019-03-27T01:00:27.651Z,71.09
2019-03-27T01:01:06.667Z,71.08
2019-03-27T01:01:37.822Z,71.02
2019-03-27T01:02:09.028Z,71.02
2019-03-27T01:02:40.198Z,71.01
2019-03-27T01:03:11.422Z,70.97
2019-03-27T01:03:42.652Z,70.94
2019-03-27T01:04:13.880Z,70.97
2019-03-27T01:04:45.099Z,70.97
2019-03-27T01:05:16.334Z,70.94
2019-03-27T01:05:47.583Z,70.94
2019-03-27T01:06:18.794Z,70.97
2019-03-27T01:06:51.144Z,70.97
2019-03-27T01:07:22.419Z,70.93
2019-03-27T01:07:53.569Z,70.92
2019-03-27T01:08:24.760Z,70.94
2019-03-27T01:08:55.923Z,70.99
2019-03-27T01:09:27.113Z,71.02
2019-03-27T01:09:58.270Z,70.98
2019-03-27T01:10:30.486Z,70.98
2019-03-27T01:11:01.635Z,70.96
2019-03-27T01:11:32.829Z,70.94
2019-03-27T01:12:03.996Z,70.94
2019-03-27T01:12:35.189Z,70.86
2019-03-27T01:13:06.342Z,70.97
2019-03-27T01:13:37.519Z,70.98
2019-03-27T01:14:08.669Z,70.97
2019-03-27T01:14:39.861Z,70.95
2019-03-27T01:15:11.014Z,70.91
2019-03-27T01:15:42.437Z,70.90
2019-03-27T01:16:13.587Z,70.83
2019-03-27T01:16:44.805Z,70.81
2019-03-27T01:17:15.960Z,70.76
2019-03-27T01:17:47.156Z,70.77
2019-03-27T01:18:18.301Z,70.80
2019-03-27T01:18:49.497Z,70.82
2019-03-27T01:19:20.657Z,70.85
2019-03-27T01:19:51.870Z,70.87
2019-03-27T01:20:23.038Z,70.85
2019-03-27T01:20:54.244Z,70.83
2019-03-27T01:21:25.375Z,70.84
2019-03-27T01:21:56.794Z,70.90
2019-03-27T01:22:27.983Z,70.90
2019-03-27T01:22:59.183Z,70.91
2019-03-27T01:23:30.318Z,70.95
2019-03-27T01:24:01.518Z,70.96
2019-03-27T01:24:32.665Z,70.96
2019-03-27T01:25:05.163Z,70.96
2019-03-27T01:25:36.325Z,70.99
2019-03-27T01:26:07.529Z,71.05
2019-03-27T01:26:38.712Z,71.04
2019-03-27T01:27:09.923Z,71.01
2019-03-27T01:27:41.091Z,71.03
2019-03-27T01:28:12.305Z,71.04
2019-03-27T01:28:43.503Z,71.03
2019-03-27T01:29:14.657Z,70.96
2019-03-27T01:29:45.836Z,70.97
2019-03-27T01:30:17.001Z,70.99
2019-03-27T01:30:48.219Z,70.97
2019-03-27T01:31:19.390Z,70.91
2019-03-27T01:31:50.629Z,70.93
2019-03-27T01:32:21.855Z,70.95
2019-03-27T01:32:53.296Z,70.93
2019-03-27T01:33:24.446Z,70.91
2019-03-27T01:33:55.646Z,70.85
2019-03-27T01:34:26.804Z,70.83
2019-03-27T01:34:58.053Z,70.86
2019-03-27T01:35:29.208Z,70.83
2019-03-27T01:36:00.472Z,70.89
2019-03-27T01:36:31.629Z,70.88
2019-03-27T01:37:02.831Z,70.89
2019-03-27T01:37:33.988Z,70.91
2019-03-27T01:38:05.198Z,70.84
2019-03-27T01:38:36.339Z,70.84
2019-03-27T01:39:07.538Z,70.85
2019-03-27T01:39:38.683Z,70.88
2019-03-27T01:40:09.988Z,70.81
2019-03-27T01:40:41.627Z,70.77
2019-03-27T01:41:12.889Z,70.71
2019-03-27T01:41:44.042Z,70.78
2019-03-27T01:42:15.235Z,70.77
2019-03-27T01:42:46.424Z,70.72
2019-03-27T01:43:17.623Z,70.68
2019-03-27T01:43:48.791Z,70.66
2019-03-27T01:44:21.906Z,70.59
2019-03-27T01:44:53.083Z,70.62
2019-03-27T01:45:24.287Z,70.58
2019-03-27T01:45:55.444Z,70.57
2019-03-27T01:46:26.632Z,70.59
2019-03-27T01:46:57.787Z,70.58
2019-03-27T01:47:29.000Z,70.53
2019-03-27T01:48:00.208Z,70.57
2019-03-27T01:48:31.431Z,70.57
2019-03-27T01:49:02.658Z,70.51
2019-03-27T01:49:33.868Z,70.61
2019-03-27T01:50:07.992Z,70.66
2019-03-27T01:50:39.220Z,70.64
2019-03-27T01:51:10.438Z,70.64
2019-03-27T01:51:41.724Z,70.61
2019-03-27T01:52:12.944Z,70.63
2019-03-27T01:52:45.070Z,70.65
2019-03-27T01:53:16.282Z,70.59
2019-03-27T01:53:47.481Z,70.44
2019-03-27T01:54:19.789Z,70.49
2019-03-27T01:54:50.948Z,70.52
2019-03-27T01:55:22.152Z,70.45
2019-03-27T01:55:53.423Z,70.46
2019-03-27T01:56:24.623Z,70.41
2019-03-27T01:56:55.797Z,70.44
2019-03-27T01:57:26.997Z,70.42
2019-03-27T01:57:58.189Z,70.35
2019-03-27T01:58:29.369Z,70.34
2019-03-27T01:59:00.533Z,70.34
2019-03-27T01:59:31.719Z,70.29
2019-03-27T02:00:06.313Z,70.24
2019-03-27T02:00:37.598Z,70.32
2019-03-27T02:01:08.763Z,70.37
2019-03-27T02:01:39.959Z,70.29
2019-03-27T02:02:11.148Z,70.29
2019-03-27T02:02:42.324Z,70.21
2019-03-27T02:03:13.535Z,70.16
2019-03-27T02:03:44.697Z,69.99
2019-03-27T02:04:15.912Z,69.93
2019-03-27T02:04:47.066Z,69.91
2019-03-27T02:05:18.268Z,69.93
2019-03-27T02:05:51.526Z,69.86
2019-03-27T02:06:24.638Z,69.85
2019-03-27T02:06:55.776Z,69.69
2019-03-27T02:07:26.977Z,69.61
2019-03-27T02:07:58.142Z,69.55
2019-03-27T02:08:29.349Z,69.58
2019-03-27T02:09:00.503Z,69.52
2019-03-27T02:09:31.699Z,69.45
2019-03-27T02:10:06.244Z,69.34
2019-03-27T02:10:37.493Z,69.32
2019-03-27T02:11:08.667Z,69.24
2019-03-27T02:11:39.870Z,69.14
2019-03-27T02:12:11.027Z,69.14
2019-03-27T02:12:42.241Z,69.05
2019-03-27T02:13:13.448Z,68.97
2019-03-27T02:13:44.735Z,68.90
2019-03-27T02:14:15.873Z,68.90
2019-03-27T02:14:47.061Z,68.94
2019-03-27T02:15:18.216Z,68.87
2019-03-27T02:15:49.431Z,69.00
2019-03-27T02:16:20.587Z,68.96
2019-03-27T02:16:51.798Z,68.91
2019-03-27T02:17:22.932Z,68.98
2019-03-27T02:17:54.146Z,68.87
2019-03-27T02:18:25.316Z,68.90
2019-03-27T02:18:56.496Z,68.95
2019-03-27T02:19:27.676Z,68.97
2019-03-27T02:19:58.856Z,69.05
2019-03-27T02:20:30.036Z,69.03
2019-03-27T02:21:01.210Z,69.05
2019-03-27T02:21:32.590Z,68.90
2019-03-27T02:22:03.788Z,68.90
2019-03-27T02:22:34.954Z,68.90
2019-03-27T02:23:06.128Z,68.86
2019-03-27T02:23:37.309Z,68.83
2019-03-27T02:24:08.493Z,68.89
2019-03-27T02:24:39.648Z,68.80
2019-03-27T02:25:10.838Z,68.82
2019-03-27T02:25:41.995Z,68.80
2019-03-27T02:26:13.172Z,68.57
2019-03-27T02:26:44.349Z,68.65
2019-03-27T02:27:15.549Z,68.64
2019-03-27T02:27:46.730Z,68.59
2019-03-27T02:28:17.911Z,68.46
2019-03-27T02:28:49.139Z,68.37
2019-03-27T02:29:20.309Z,68.28
2019-03-27T02:29:51.495Z,68.18
2019-03-27T02:30:22.671Z,68.12
2019-03-27T02:30:53.863Z,68.14
2019-03-27T02:31:25.047Z,68.11
2019-03-27T02:31:56.301Z,68.16
2019-03-27T02:32:27.482Z,68.05
2019-03-27T02:32:58.667Z,68.16
2019-03-27T02:33:29.876Z,68.24
2019-03-27T02:34:01.732Z,68.07
2019-03-27T02:34:33.079Z,68.08
2019-03-27T02:35:04.472Z,68.12
2019-03-27T02:35:35.645Z,68.26
2019-03-27T02:36:06.837Z,68.40
2019-03-27T02:36:40.857Z,68.43
2019-03-27T02:37:12.042Z,68.57
2019-03-27T02:37:43.221Z,68.40
2019-03-27T02:38:14.396Z,68.46
2019-03-27T02:38:45.598Z,68.35
2019-03-27T02:39:18.646Z,68.30
2019-03-27T02:39:49.841Z,68.17
2019-03-27T02:40:21.039Z,68.24
2019-03-27T02:40:52.249Z,68.48
2019-03-27T02:41:23.421Z,68.30
2019-03-27T02:41:54.604Z,68.32
2019-03-27T02:42:25.748Z,68.43
2019-03-27T02:42:56.944Z,68.41
2019-03-27T02:43:28.109Z,68.39
2019-03-27T02:43:59.315Z,68.49
2019-03-27T02:44:30.473Z,68.17
2019-03-27T02:45:01.670Z,68.37
2019-03-27T02:45:32.946Z,68.36
2019-03-27T02:46:04.157Z,68.66
2019-03-27T02:46:35.343Z,68.42
2019-03-27T02:47:06.562Z,68.33
2019-03-27T02:47:37.715Z,68.21
2019-03-27T02:48:09.122Z,68.13
2019-03-27T02:48:40.405Z,68.37
2019-03-27T02:49:11.665Z,68.29
2019-03-27T02:49:42.931Z,68.29
2019-03-27T02:50:14.235Z,68.28
2019-03-27T02:50:46.453Z,68.32
2019-03-27T02:51:18.689Z,68.38
2019-03-27T02:51:49.934Z,68.25
2019-03-27T02:52:21.239Z,68.26
2019-03-27T02:52:52.550Z,68.12
2019-03-27T02:53:24.159Z,68.04
2019-03-27T02:53:55.394Z,68.05
2019-03-27T02:54:26.614Z,68.00
2019-03-27T02:54:57.927Z,67.90
2019-03-27T02:55:29.181Z,67.97
2019-03-27T02:56:00.389Z,67.93
2019-03-27T02:56:31.641Z,67.91
2019-03-27T02:57:02.851Z,67.85
2019-03-27T02:57:34.543Z,67.91
2019-03-27T02:58:05.749Z,68.00
2019-03-27T02:58:37.004Z,68.03
2019-03-27T02:59:08.218Z,67.98
2019-03-27T02:59:39.370Z,68.00
2019-03-27T03:00:11.073Z,68.13
2019-03-27T03:00:42.237Z,68.36
2019-03-27T03:01:13.440Z,68.46
2019-03-27T03:01:47.798Z,68.10
2019-03-27T03:02:17.698Z,68.00
2019-03-27T03:02:48.854Z,68.13
2019-03-27T03:03:20.064Z,68.31
2019-03-27T03:03:51.219Z,68.39
2019-03-27T03:04:22.420Z,68.48
2019-03-27T03:04:53.580Z,68.56
2019-03-27T03:05:24.772Z,68.58
2019-03-27T03:05:55.948Z,68.58
2019-03-27T03:06:28.150Z,68.48
2019-03-27T03:06:59.298Z,68.50
2019-03-27T03:07:30.540Z,68.44
2019-03-27T03:08:01.776Z,68.62
2019-03-27T03:08:32.984Z,68.51
2019-03-27T03:09:05.557Z,68.49
2019-03-27T03:09:36.873Z,68.44
2019-03-27T03:10:08.323Z,68.61
2019-03-27T03:10:39.534Z,68.43
2019-03-27T03:11:10.701Z,68.51
2019-03-27T03:11:41.910Z,68.51
2019-03-27T03:12:13.058Z,68.52
2019-03-27T03:12:44.265Z,68.62
2019-03-27T03:13:15.428Z,68.69
2019-03-27T03:13:46.627Z,68.79
2019-03-27T03:14:17.811Z,68.73
2019-03-27T03:14:49.048Z,68.68
2019-03-27T03:15:21.286Z,68.60
2019-03-27T03:15:52.513Z,68.66
2019-03-27T03:16:40.923Z,68.75
2019-03-27T03:16:57.110Z,68.91
2019-03-27T03:17:28.332Z,68.71
2019-03-27T03:17:59.545Z,68.93
2019-03-27T03:18:30.793Z,68.91
2019-03-27T03:19:02.015Z,68.90
2019-03-27T03:19:33.221Z,69.09
2019-03-27T03:20:06.082Z,69.00
2019-03-27T03:20:38.289Z,69.07
2019-03-27T03:21:09.539Z,69.14
2019-03-27T03:21:40.742Z,69.18
2019-03-27T03:22:11.898Z,69.37
2019-03-27T03:22:43.118Z,69.22
2019-03-27T03:23:14.262Z,69.29
2019-03-27T03:23:45.459Z,69.22
2019-03-27T03:24:16.666Z,69.03
2019-03-27T03:24:47.877Z,69.09
2019-03-27T03:25:19.032Z,69.33
2019-03-27T03:25:50.276Z,69.23
2019-03-27T03:26:21.435Z,69.09
2019-03-27T03:26:52.634Z,69.16
2019-03-27T03:27:23.779Z,69.15
2019-03-27T03:27:54.981Z,69.06
2019-03-27T03:28:26.247Z,69.12
2019-03-27T03:28:57.439Z,69.14
2019-03-27T03:29:28.619Z,69.20
2019-03-27T03:29:59.783Z,69.15
2019-03-27T03:30:30.925Z,69.18
2019-03-27T03:31:02.133Z,69.23
2019-03-27T03:31:33.288Z,69.22
2019-03-27T03:32:04.485Z,69.13
2019-03-27T03:32:35.641Z,69.16
2019-03-27T03:33:06.942Z,69.11
2019-03-27T03:33:38.099Z,69.21
2019-03-27T03:34:09.442Z,68.94
2019-03-27T03:34:40.610Z,68.94
2019-03-27T03:35:11.811Z,69.00
2019-03-27T03:35:43.058Z,68.90
2019-03-27T03:36:14.532Z,68.89
2019-03-27T03:36:45.717Z,68.91
2019-03-27T03:37:16.921Z,68.84
2019-03-27T03:37:48.220Z,68.76
2019-03-27T03:38:19.397Z,68.72
2019-03-27T03:38:50.581Z,68.74
2019-03-27T03:39:21.764Z,68.79
2019-03-27T03:39:53.244Z,68.70
2019-03-27T03:40:25.426Z,68.87
2019-03-27T03:40:56.719Z,68.93
2019-03-27T03:41:27.905Z,68.86
2019-03-27T03:41:59.095Z,68.86
2019-03-27T03:42:30.264Z,68.93
2019-03-27T03:43:01.504Z,68.78
2019-03-27T03:43:32.670Z,68.86
2019-03-27T03:44:03.829Z,68.81
2019-03-27T03:44:35.068Z,68.72
2019-03-27T03:45:06.342Z,68.72
2019-03-27T03:45:37.525Z,68.92
2019-03-27T03:46:08.751Z,68.81
2019-03-27T03:46:39.933Z,68.84
2019-03-27T03:47:11.104Z,68.75
2019-03-27T03:47:42.283Z,68.65
2019-03-27T03:48:13.469Z,68.86
2019-03-27T03:48:44.686Z,68.86
2019-03-27T03:49:15.908Z,68.83
2019-03-27T03:49:47.112Z,68.79
2019-03-27T03:50:37.714Z,68.70
2019-03-27T03:51:08.929Z,68.71
2019-03-27T03:51:40.095Z,68.62
2019-03-27T03:52:11.282Z,68.50
2019-03-27T03:52:45.867Z,68.47
2019-03-27T03:53:15.560Z,68.45
2019-03-27T03:53:46.719Z,68.58
2019-03-27T03:54:17.935Z,68.59
2019-03-27T03:54:49.421Z,68.46
2019-03-27T03:55:20.661Z,68.38
2019-03-27T03:55:51.805Z,68.38
2019-03-27T03:56:23.228Z,68.47
2019-03-27T03:56:54.992Z,68.45
2019-03-27T03:57:26.183Z,68.36
2019-03-27T03:57:58.344Z,68.38
2019-03-27T03:58:29.520Z,68.59
2019-03-27T03:59:00.687Z,68.65
2019-03-27T03:59:31.886Z,68.47
2019-03-27T04:00:05.653Z,68.52
2019-03-27T04:00:37.025Z,68.61
2019-03-27T04:01:08.198Z,68.47
2019-03-27T04:01:39.583Z,68.43
2019-03-27T04:02:10.766Z,68.52
2019-03-27T04:02:41.960Z,68.45
2019-03-27T04:03:13.175Z,68.58
2019-03-27T04:03:44.372Z,68.62
2019-03-27T04:04:15.547Z,68.66
2019-03-27T04:04:46.817Z,68.70
2019-03-27T04:05:20.476Z,68.57
2019-03-27T04:05:51.666Z,68.55
2019-03-27T04:06:23.369Z,68.64
2019-03-27T04:06:54.546Z,68.71
2019-03-27T04:07:25.749Z,68.70
2019-03-27T04:07:56.926Z,68.74
2019-03-27T04:08:28.118Z,68.75
2019-03-27T04:08:59.285Z,68.68
2019-03-27T04:09:30.446Z,68.56
2019-03-27T04:10:01.690Z,68.59
2019-03-27T04:10:32.967Z,68.45
2019-03-27T04:11:04.194Z,68.37
2019-03-27T04:11:35.368Z,68.46
2019-03-27T04:12:06.547Z,68.37
2019-03-27T04:12:37.815Z,68.40
2019-03-27T04:13:08.989Z,68.40
2019-03-27T04:13:40.185Z,68.38
2019-03-27T04:14:11.340Z,68.42
2019-03-27T04:14:42.515Z,68.38
2019-03-27T04:15:13.706Z,68.41
2019-03-27T04:15:44.973Z,68.49
2019-03-27T04:16:16.181Z,68.54
2019-03-27T04:16:47.335Z,68.54
2019-03-27T04:17:18.632Z,68.57
2019-03-27T04:17:49.876Z,68.43
2019-03-27T04:18:21.121Z,68.53
2019-03-27T04:18:52.372Z,68.46
2019-03-27T04:19:23.965Z,68.49
2019-03-27T04:19:55.114Z,68.39
2019-03-27T04:20:26.333Z,68.32
2019-03-27T04:20:57.484Z,68.27
2019-03-27T04:21:28.683Z,68.36
2019-03-27T04:21:59.840Z,68.42
2019-03-27T04:22:31.044Z,68.51
2019-03-27T04:23:02.197Z,68.40
2019-03-27T04:23:33.484Z,68.35
2019-03-27T04:24:04.638Z,68.53
2019-03-27T04:24:35.835Z,68.55
2019-03-27T04:25:06.987Z,68.37
2019-03-27T04:26:07.269Z,68.40
2019-03-27T04:26:11.428Z,68.32
2019-03-27T04:26:42.682Z,68.26
2019-03-27T04:27:13.832Z,68.23
2019-03-27T04:27:45.015Z,68.23
2019-03-27T04:28:16.193Z,68.27
2019-03-27T04:28:47.467Z,68.28
2019-03-27T04:29:18.637Z,68.30
2019-03-27T04:29:50.019Z,68.33
2019-03-27T04:30:21.232Z,68.35
2019-03-27T04:30:52.389Z,68.26
2019-03-27T04:31:23.771Z,68.27
2019-03-27T04:31:54.989Z,68.45
2019-03-27T04:32:26.322Z,68.34
2019-03-27T04:32:57.553Z,68.49
2019-03-27T04:33:28.766Z,68.42
2019-03-27T04:33:59.996Z,68.36
2019-03-27T04:34:31.219Z,68.46
2019-03-27T04:35:04.136Z,68.50
2019-03-27T04:35:35.345Z,68.50
2019-03-27T04:36:06.474Z,68.47
2019-03-27T04:36:38.679Z,68.36
2019-03-27T04:37:09.850Z,68.44
2019-03-27T04:37:41.044Z,68.47
2019-03-27T04:38:12.198Z,68.50
2019-03-27T04:38:43.393Z,68.56
2019-03-27T04:39:15.544Z,68.76
2019-03-27T04:39:46.746Z,68.84
2019-03-27T04:40:17.897Z,68.92
2019-03-27T04:40:49.104Z,69.15
2019-03-27T04:41:20.308Z,69.15
2019-03-27T04:41:51.508Z,69.25
2019-03-27T04:42:22.672Z,69.23
2019-03-27T04:42:53.973Z,69.35
2019-03-27T04:43:25.147Z,69.35
2019-03-27T04:43:56.679Z,69.39
2019-03-27T04:44:27.832Z,69.43
2019-03-27T04:44:59.050Z,69.44
2019-03-27T04:45:30.232Z,69.37
2019-03-27T04:46:01.432Z,69.40
2019-03-27T04:46:32.582Z,69.46
2019-03-27T04:47:03.769Z,69.52
2019-03-27T04:47:34.920Z,69.47
2019-03-27T04:48:06.123Z,69.54
2019-03-27T04:48:37.278Z,69.65
2019-03-27T04:49:08.476Z,69.76
2019-03-27T04:49:39.662Z,69.91
2019-03-27T04:50:10.848Z,69.92
2019-03-27T04:50:42.020Z,70.07
2019-03-27T04:51:13.170Z,70.10
2019-03-27T04:51:44.364Z,70.11
2019-03-27T04:52:15.518Z,70.11
2019-03-27T04:52:46.717Z,70.20
2019-03-27T04:53:17.879Z,70.21
2019-03-27T04:53:50.097Z,70.35
2019-03-27T04:54:22.239Z,70.46
2019-03-27T04:54:53.697Z,70.52
2019-03-27T04:55:24.915Z,70.55
2019-03-27T04:55:56.147Z,70.55
2019-03-27T04:56:27.295Z,70.58
2019-03-27T04:56:58.509Z,70.51
2019-03-27T04:57:29.655Z,70.50
2019-03-27T04:58:00.909Z,70.45
2019-03-27T04:58:32.069Z,70.34
2019-03-27T04:59:03.238Z,70.36
2019-03-27T04:59:34.425Z,70.41
2019-03-27T05:00:06.205Z,70.39
2019-03-27T05:00:37.391Z,70.49
2019-03-27T05:01:08.677Z,70.63
2019-03-27T05:01:39.840Z,70.60
2019-03-27T05:02:11.021Z,70.77
2019-03-27T05:02:42.169Z,70.76
2019-03-27T05:03:13.425Z,70.93
2019-03-27T05:03:44.599Z,71.12
2019-03-27T05:04:15.894Z,71.20
2019-03-27T05:04:47.158Z,71.18
2019-03-27T05:05:18.367Z,71.13
2019-03-27T05:05:49.550Z,71.18
2019-03-27T05:06:20.752Z,71.27
2019-03-27T05:06:51.902Z,71.43
2019-03-27T05:07:23.581Z,71.31
2019-03-27T05:07:54.804Z,71.37
2019-03-27T05:08:26.057Z,71.38
2019-03-27T05:08:57.220Z,71.37
2019-03-27T05:09:28.419Z,71.33
2019-03-27T05:09:59.577Z,71.19
2019-03-27T05:10:30.815Z,71.11
2019-03-27T05:11:01.986Z,71.18
2019-03-27T05:11:33.163Z,71.13
2019-03-27T05:12:04.345Z,71.10
2019-03-27T05:12:38.464Z,71.09
2019-03-27T05:13:08.584Z,71.06
2019-03-27T05:13:39.754Z,71.13
2019-03-27T05:14:10.939Z,71.16
2019-03-27T05:14:42.117Z,71.25
2019-03-27T05:15:13.284Z,71.37
2019-03-27T05:15:44.480Z,71.43
2019-03-27T05:16:15.646Z,71.50
2019-03-27T05:16:46.820Z,71.66
2019-03-27T05:17:17.992Z,71.66
2019-03-27T05:17:49.176Z,71.66
2019-03-27T05:18:20.341Z,71.75
2019-03-27T05:18:51.514Z,71.76
2019-03-27T05:19:22.690Z,71.77
2019-03-27T05:19:53.960Z,71.77
2019-03-27T05:20:25.136Z,71.81
2019-03-27T05:20:56.343Z,71.79
2019-03-27T05:21:27.522Z,71.80
2019-03-27T05:21:58.696Z,71.88
2019-03-27T05:22:29.885Z,71.81
2019-03-27T05:23:01.051Z,71.75
2019-03-27T05:23:32.223Z,71.66
2019-03-27T05:24:03.435Z,71.62
2019-03-27T05:24:34.615Z,71.52
2019-03-27T05:25:06.233Z,71.48
2019-03-27T05:25:37.468Z,71.47
2019-03-27T05:26:08.675Z,71.40
2019-03-27T05:26:39.846Z,71.41
2019-03-27T05:27:11.017Z,71.40
2019-03-27T05:27:42.191Z,71.45
2019-03-27T05:28:13.381Z,71.41
2019-03-27T05:28:44.560Z,71.46
2019-03-27T05:29:15.739Z,71.42
2019-03-27T05:29:46.984Z,71.37
2019-03-27T05:30:26.520Z,71.37
2019-03-27T05:30:57.674Z,71.39
2019-03-27T05:31:28.856Z,71.27
2019-03-27T05:32:00.040Z,71.27
2019-03-27T05:32:31.220Z,71.28
2019-03-27T05:33:02.401Z,71.25
2019-03-27T05:33:33.651Z,71.21
2019-03-27T05:34:04.842Z,71.25
2019-03-27T05:34:36.014Z,71.22
2019-03-27T05:35:07.193Z,71.21
2019-03-27T05:35:38.381Z,71.19
2019-03-27T05:36:09.561Z,71.16
2019-03-27T05:36:40.737Z,71.11
2019-03-27T05:37:11.903Z,71.14
2019-03-27T05:37:43.099Z,71.11
2019-03-27T05:38:14.261Z,70.99
2019-03-27T05:38:45.433Z,70.95
2019-03-27T05:39:16.605Z,70.95
2019-03-27T05:39:47.779Z,71.07
2019-03-27T05:40:18.965Z,71.08
2019-03-27T05:40:50.131Z,71.07
2019-03-27T05:41:21.341Z,71.09
2019-03-27T05:41:52.523Z,71.05
2019-03-27T05:42:23.886Z,71.18
2019-03-27T05:43:01.031Z,71.25
2019-03-27T05:43:28.243Z,71.44
2019-03-27T05:43:59.430Z,71.52
2019-03-27T05:44:30.608Z,71.53
2019-03-27T05:45:01.877Z,71.53
2019-03-27T05:45:33.054Z,71.65
2019-03-27T05:46:04.228Z,71.81
2019-03-27T05:46:35.423Z,71.81
2019-03-27T05:47:06.587Z,71.87
2019-03-27T05:47:37.799Z,72.14
2019-03-27T05:48:08.956Z,72.09
2019-03-27T05:48:40.150Z,72.14
2019-03-27T05:49:11.311Z,72.12
2019-03-27T05:49:42.521Z,72.07
2019-03-27T05:50:13.751Z,72.12
2019-03-27T05:50:44.983Z,72.15
2019-03-27T05:51:16.210Z,72.12
2019-03-27T05:51:47.428Z,72.12
2019-03-27T05:52:18.575Z,72.95
2019-03-27T05:52:49.783Z,72.42
2019-03-27T05:53:20.950Z,72.46
2019-03-27T05:53:52.244Z,72.67
2019-03-27T05:54:23.506Z,73.01
2019-03-27T05:54:54.825Z,72.96
2019-03-27T05:55:26.715Z,73.01
2019-03-27T05:55:57.999Z,73.11
2019-03-27T05:56:29.455Z,73.61
2019-03-27T05:57:00.647Z,73.86
2019-03-27T05:57:31.823Z,73.82
2019-03-27T05:58:03.042Z,73.83
2019-03-27T05:58:34.176Z,73.90
2019-03-27T05:59:05.379Z,73.92
2019-03-27T05:59:36.529Z,74.10
2019-03-27T06:00:08.006Z,74.25
2019-03-27T06:00:39.190Z,74.52
2019-03-27T06:01:10.352Z,74.76
2019-03-27T06:01:41.548Z,74.92
2019-03-27T06:02:12.744Z,75.05
2019-03-27T06:02:43.905Z,75.30
2019-03-27T06:03:15.100Z,75.02
2019-03-27T06:03:46.263Z,75.10
2019-03-27T06:04:17.457Z,75.38
2019-03-27T06:04:48.610Z,75.56
2019-03-27T06:05:19.807Z,75.54
2019-03-27T06:05:50.952Z,75.95
2019-03-27T06:06:22.176Z,76.00
2019-03-27T06:06:53.381Z,76.05
2019-03-27T06:07:24.563Z,76.26
2019-03-27T06:07:55.755Z,76.31
2019-03-27T06:08:26.941Z,76.49
2019-03-27T06:08:58.133Z,76.62
2019-03-27T06:09:29.329Z,76.84
2019-03-27T06:10:00.529Z,76.88
2019-03-27T06:10:31.698Z,76.94
2019-03-27T06:11:02.867Z,76.99
2019-03-27T06:11:34.058Z,77.17
2019-03-27T06:12:05.247Z,77.35
2019-03-27T06:12:36.420Z,77.51
2019-03-27T06:13:07.636Z,77.60
2019-03-27T06:13:38.846Z,77.66
2019-03-27T06:14:10.036Z,77.66
2019-03-27T06:14:41.211Z,77.72
2019-03-27T06:15:12.398Z,77.70
2019-03-27T06:15:45.139Z,77.73
2019-03-27T06:16:16.580Z,77.64
2019-03-27T06:16:47.760Z,77.69
2019-03-27T06:17:18.944Z,77.60
2019-03-27T06:17:50.160Z,77.66
2019-03-27T06:18:21.330Z,77.69
2019-03-27T06:18:53.520Z,77.69
2019-03-27T06:19:24.688Z,77.71
2019-03-27T06:19:55.876Z,77.74
2019-03-27T06:20:27.058Z,77.72
2019-03-27T06:20:58.229Z,77.65
2019-03-27T06:21:29.417Z,77.59
2019-03-27T06:22:00.614Z,77.61
2019-03-27T06:22:31.782Z,77.53
2019-03-27T06:23:02.973Z,77.65
2019-03-27T06:23:34.153Z,77.67
2019-03-27T06:24:05.336Z,77.86
2019-03-27T06:24:36.501Z,77.71
2019-03-27T06:25:07.694Z,77.70
2019-03-27T06:25:38.878Z,77.89
2019-03-27T06:26:10.056Z,77.87
2019-03-27T06:26:41.235Z,77.85
2019-03-27T06:27:12.435Z,77.79
2019-03-27T06:27:43.568Z,77.92
2019-03-27T06:28:14.782Z,77.79
2019-03-27T06:28:46.949Z,77.83
2019-03-27T06:29:18.150Z,77.78
2019-03-27T06:29:49.308Z,77.78
2019-03-27T06:30:20.511Z,77.81
2019-03-27T06:30:51.672Z,77.98
2019-03-27T06:31:23.250Z,77.90
2019-03-27T06:31:54.396Z,77.82
2019-03-27T06:32:25.604Z,77.85
2019-03-27T06:32:56.750Z,77.85
2019-03-27T06:33:27.947Z,78.06
2019-03-27T06:33:59.107Z,78.06
2019-03-27T06:34:30.298Z,77.81
2019-03-27T06:35:01.560Z,77.80
2019-03-27T06:35:32.761Z,77.81
2019-03-27T06:36:03.923Z,77.86
2019-03-27T06:36:35.126Z,77.90
2019-03-27T06:37:06.305Z,77.88
2019-03-27T06:37:37.517Z,77.90
2019-03-27T06:38:08.666Z,77.87
2019-03-27T06:38:39.873Z,77.83
2019-03-27T06:39:11.015Z,77.79
2019-03-27T06:39:42.213Z,77.75
2019-03-27T06:40:13.374Z,77.89
2019-03-27T06:40:44.575Z,77.89
2019-03-27T06:41:15.735Z,77.64
2019-03-27T06:41:47.005Z,77.64
2019-03-27T06:42:18.189Z,77.72
2019-03-27T06:42:49.396Z,77.59
2019-03-27T06:43:20.566Z,77.51
2019-03-27T06:43:51.866Z,77.50